METAR Analyzer

一覧表示

Hello, Guest. (Login)

RJCC/CTS  -  札幌/新千歳

観測日時
2021-01-27 00:30 (UTC) (25分前)
気温
3
露点
3
湿数
0
相対湿度
100%
QNH
1005hPa
推定現地気圧
1002.0hPa
推定海面気圧
1005.1hPa
体感温度
-14
(無風時)
6.3
HI
2
気温前日比
+9.5
体感温度前日比
+0.8
HI前日比
+10.9
水平視程
5000m
鉛直視程
データなし
雲底高度
900ft AGL
V/I
SVMC (SVFR)
RVR
No RVR data
卓越風
14kt from 160° (120° ~ 190°)
ガスト
No gust
降水
弱いしゅう雨性の雨
その他の天気
もや
少しの雲 @ 500ft AGL / 隙間のある雲 @ 900ft AGL / 隙間のある雲 @ 1500ft AGL

RJCC 270030Z 16014KT 120V190 5000 -SHRA BR FEW005 BKN009 BKN015 03/03 Q1005

株式会社マネーパートナーズ 【Manepa Card】

RJTT/HND  -  東京/羽田

観測日時
2021-01-27 00:30 (UTC) (25分前)
気温
10
露点
6
湿数
4
相対湿度
76.2%
QNH
1011hPa
推定現地気圧
1010.3hPa
推定海面気圧
1011.0hPa
体感温度
3.1
(無風時)
12.7
HI
9
気温前日比
+1.5
体感温度前日比
+4.6
HI前日比
+1.8
水平視程
>10000m
鉛直視程
データなし
雲底高度
1300ft AGL
V/I
VMC (VFR)
RVR
No RVR data
卓越風
4kt from 10°
ガスト
No gust
降水
報告なし
その他の天気
報告なし
少しの雲 @ 1000ft AGL / 隙間のある雲 @ 1300ft AGL / 隙間のある雲 @ 3000ft AGL

RJTT 270030Z 01004KT 9999 FEW010 BKN013 BKN030 10/06 Q1011 NOSIG

RJAA/NRT  -  東京/成田

観測日時
2021-01-27 00:30 (UTC) (25分前)
気温
8
露点
6
湿数
2
相対湿度
87.2%
QNH
1011hPa
推定現地気圧
1009.7hPa
推定海面気圧
1011.0hPa
体感温度
0.4
(無風時)
11
HI
7.1
気温前日比
±0
体感温度前日比
+3.9
HI前日比
+0.1
水平視程
6000m
鉛直視程
データなし
雲底高度
1700ft AGL
V/I
VMC (VFR)
RVR
No RVR data
卓越風
4kt from 320°
ガスト
No gust
降水
報告なし
その他の天気
報告なし
少しの雲 @ 1000ft AGL / 隙間のある雲 @ 1700ft AGL / 隙間のある雲 @ 8000ft AGL

RJAA 270030Z 32004KT 6000 FEW010 BKN017 BKN080 08/06 Q1011 NOSIG

RJGG/NGO  -  名古屋/中部

観測日時
2021-01-27 00:30 (UTC) (25分前)
気温
13
露点
8
湿数
5
相対湿度
71.6%
QNH
1014hPa
推定現地気圧
1013.5hPa
推定海面気圧
1014.0hPa
体感温度
0.6
(無風時)
15
HI
12.2
気温前日比
+5
体感温度前日比
+4.1
HI前日比
+5.4
水平視程
>10000m
鉛直視程
データなし
雲底高度
No dense clouds
V/I
VMC (VFR)
RVR
No RVR data
卓越風
21kt from 330°
ガスト
No gust
降水
報告なし
その他の天気
報告なし
少しの雲 @ 1500ft AGL / 散在する雲 @ 7000ft AGL

RJGG 270030Z 33021KT 9999 FEW015 SCT070 13/08 Q1014 NOSIG

RJOO/ITM  -  大阪/伊丹

観測日時
2021-01-27 00:00 (UTC) (55分前)
気温
12
露点
8
湿数
4
相対湿度
76.5%
QNH
1016hPa
推定現地気圧
1014.6hPa
推定海面気圧
1016.1hPa
体感温度
0.7
(無風時)
14.3
HI
11.3
気温前日比
+2
体感温度前日比
-0.1
HI前日比
+2.3
水平視程
>10000m
鉛直視程
データなし
雲底高度
No dense clouds
V/I
VMC (VFR)
RVR
No RVR data
卓越風
13kt from 320°
ガスト
No gust
降水
報告なし
その他の天気
報告なし
少しの雲 @ 2000ft AGL / 散在する雲 @ 6000ft AGL

RJOO 270000Z 32013KT 9999 FEW020 SCT060 12/08 Q1016

RJBB/KIX  -  大阪/関西

観測日時
2021-01-27 00:30 (UTC) (25分前)
気温
12
露点
7
湿数
5
相対湿度
71.4%
QNH
1016hPa
推定現地気圧
1015.4hPa
推定海面気圧
1016.0hPa
体感温度
-0.3
(無風時)
14.2
HI
11.1
気温前日比
+3
体感温度前日比
-2.3
HI前日比
+3.2
水平視程
>10000m
鉛直視程
データなし
雲底高度
5000ft AGL
V/I
VMC (VFR)
RVR
No RVR data
卓越風
18kt from 350°
ガスト
No gust
降水
報告なし
その他の天気
報告なし
少しの雲 @ 800ft AGL / 散在する雲 @ 3000ft AGL / 隙間のある雲 @ 5000ft AGL

RJBB 270030Z 35018KT 9999 FEW008 SCT030 BKN050 12/07 Q1016 NOSIG

RJFF/FUK  -  福岡

観測日時
2021-01-27 00:30 (UTC) (25分前)
気温
12
露点
6
湿数
6
相対湿度
66.7%
QNH
1019hPa
推定現地気圧
1017.9hPa
推定海面気圧
1019.0hPa
体感温度
3.4
(無風時)
14.2
HI
11
気温前日比
+3.5
体感温度前日比
+1.6
HI前日比
+3.5
水平視程
>10000m
鉛直視程
データなし
雲底高度
4000ft AGL
V/I
VMC (VFR)
RVR
No RVR data
卓越風
7kt from 360° (310° ~ 40°)
ガスト
No gust
降水
報告なし
その他の天気
報告なし
少しの雲 @ 2500ft AGL / 散在する雲 @ 3500ft AGL / 隙間のある雲 @ 4000ft AGL

RJFF 270030Z 36007KT 310V040 9999 FEW025 SCT035 BKN040 12/06 Q1019 NOSIG

ROAH/OKA  -  那覇

観測日時
2021-01-27 00:30 (UTC) (25分前)
気温
20
露点
14
湿数
6
相対湿度
68.4%
QNH
1017hPa
推定現地気圧
1016.6hPa
推定海面気圧
1017.0hPa
体感温度
10.9
(無風時)
20.4
HI
19.8
気温前日比
-0.5
体感温度前日比
-3.6
HI前日比
-0.8
水平視程
>10000m
鉛直視程
データなし
雲底高度
4800ft AGL
V/I
VMC (VFR)
RVR
No RVR data
卓越風
16kt from 350°
ガスト
No gust
降水
報告なし
その他の天気
報告なし
少しの雲 @ 2500ft AGL / 隙間のある雲 @ 4800ft AGL

ROAH 270030Z 35016KT 9999 FEW025 BKN048 20/14 Q1017

599.4msec